首页
METAR-TAF:

METAR-TAF

机场 :

托庫門國際機場

Tocumen, 巴拿马

纬度: 09-03N, 经度: 079-22W, 海拔: 45米

当前天气观测

该预报发布于40分钟前的15:00 UTC
风速9节,风向
温度 30°C
湿度 79%
气压 1010 hPa
能见度10公里或以上
散云层高于1800英尺, 塔状积云.

METAR: MPTO 251500Z 17009KT 9999 SCT018TCU 30/26 Q1010 TEMPO SCT018CB

时间: 10:40 (15:40 UTC)

预报

该预报发布于3小时和40分钟前的12:00 UTC
预报有效从25日的 12点(UTC)到 26日的 18点(UTC)
风速5节,风向西北
能见度10公里或以上
散云层高于1800英尺, 积雨云.
散云层高于9000英尺
短暂存在
从 25日的 16点(UTC)到 25日的 20点(UTC)
风速8节,风向
能見度: 5000
散云层高于1500英尺, 积雨云.
多云层高于8000英尺
雷暴, 雨
短暂存在
从 25日的 20点(UTC)到 25日的 22点(UTC)
能見度: 8000
短暂存在
从 25日的 22点(UTC)到 25日的 24点(UTC)
能见度10公里或以上
短暂存在
从 26日的 02点(UTC)到 26日的 06点(UTC)
风速2节,风向多变

TAF: MPTO 251200Z 2512/2618 31005KT 9999 SCT018CB SCT090 TEMPO 2516/2520 18008KT 5000 TSRA SCT015CB BKN080 TEMPO 2520/2522 8000 RA TEMPO 2522/2524 9999 NSW TEMPO 2602/2606 VRB02KT

超过4000个机场的气象观测和天气预报(METAR&TAF报告)。

可查询的气象台以黄色和红色小点在地图上表示。

将鼠标移到小点上方,可查看气象台名称。

然后点击查看天气观测和预报。

如需切换地图:点击带黑十字的绿色按钮放大地图;点击带横线的绿色按钮缩小地图;或者点击绿色箭头查看邻近地区的地图。


METAR-TAF: